Time;durP1;ratioP1;P1;durP2;ratioP2;P2;SDS_P1;SDS_P2;PMS_P1;PMS_P2;Temp;Humidity;BMP_temperature;BMP_pressure;BME280_temperature;BME280_humidity;BME280_pressure;Samples;Min_cycle;Max_cycle;Signal;HPM_P1;HPM_P2
2023/12/19 00:01:09;;;;;;;62.30;35.92;;;;;;;1.39;65.51;96210.94;5107794;28;20092;-79
2023/12/19 00:03:34;;;;;;;58.58;34.15;;;;;;;1.36;65.41;96212.38;5105765;28;20024;-79
2023/12/19 00:06:00;;;;;;;68.85;36.92;;;;;;;1.39;65.57;96219.06;5107955;28;20027;-79
2023/12/19 00:08:25;;;;;;;69.97;37.25;;;;;;;1.35;65.67;96216.25;5106393;28;20024;-78
2023/12/19 00:10:50;;;;;;;67.78;38.35;;;;;;;1.30;66.34;96221.91;5107471;28;20091;-78
2023/12/19 00:13:16;;;;;;;64.57;37.88;;;;;;;1.26;66.50;96219.13;5106738;28;20044;-78
2023/12/19 00:15:42;;;;;;;66.05;36.55;;;;;;;1.25;66.46;96212.09;5107423;28;20159;-78
2023/12/19 00:18:07;;;;;;;61.03;35.83;;;;;;;1.30;66.43;96221.91;5107943;28;20466;-78
2023/12/19 00:20:33;;;;;;;61.50;34.03;;;;;;;1.24;66.58;96221.38;5105923;28;20098;-78
2023/12/19 00:23:00;;;;;;;67.80;35.97;;;;;;;1.22;66.65;96220.94;5107939;28;20052;-76
2023/12/19 00:25:26;;;;;;;64.43;36.45;;;;;;;1.21;66.36;96213.16;5106691;28;20505;-79
2023/12/19 00:27:51;;;;;;;63.75;34.33;;;;;;;1.19;66.92;96220.81;5105908;28;20039;-79
2023/12/19 00:30:17;;;;;;;64.43;34.65;;;;;;;1.08;66.81;96209.69;5106360;28;20482;-79
2023/12/19 00:32:43;;;;;;;52.55;31.08;;;;;;;1.14;66.41;96221.84;5106057;28;20031;-79
2023/12/19 00:35:08;;;;;;;54.10;31.52;;;;;;;1.13;66.08;96231.13;5105521;28;20031;-79
2023/12/19 00:37:34;;;;;;;60.10;30.35;;;;;;;1.07;66.31;96235.19;5107101;28;20042;-79
2023/12/19 00:39:59;;;;;;;52.00;29.40;;;;;;;1.09;67.08;96235.66;5106432;28;20458;-79
2023/12/19 00:42:25;;;;;;;46.80;27.35;;;;;;;1.12;66.71;96234.19;5106735;28;20084;-79
2023/12/19 00:44:50;;;;;;;46.78;28.05;;;;;;;1.08;67.41;96219.75;5107455;28;20510;-79
2023/12/19 00:47:15;;;;;;;48.15;24.92;;;;;;;1.10;67.40;96223.69;5106081;28;20085;-78
2023/12/19 00:49:42;;;;;;;39.70;23.25;;;;;;;1.04;67.10;96225.84;5107174;28;20610;-78
2023/12/19 00:52:08;;;;;;;39.42;24.45;;;;;;;1.00;67.20;96219.53;5106375;28;20498;-79
2023/12/19 00:54:33;;;;;;;41.97;23.73;;;;;;;1.01;67.55;96220.31;5106877;28;20092;-78
2023/12/19 00:56:59;;;;;;;37.13;23.63;;;;;;;1.07;67.90;96221.66;5105316;28;20119;-78
2023/12/19 00:59:24;;;;;;;42.58;22.98;;;;;;;1.03;68.09;96229.69;5106103;28;20057;-78
2023/12/19 01:01:49;;;;;;;36.97;21.65;;;;;;;1.01;67.97;96217.63;5106689;28;20406;-79
2023/12/19 01:04:17;;;;;;;33.72;19.17;;;;;;;0.97;67.81;96220.22;5105727;28;20027;-78
2023/12/19 01:06:42;;;;;;;27.02;17.65;;;;;;;0.98;67.28;96218.31;5106434;28;20124;-78
2023/12/19 01:09:09;;;;;;;34.75;17.58;;;;;;;0.97;66.81;96220.22;5105763;28;20099;-78
2023/12/19 01:11:35;;;;;;;31.27;16.48;;;;;;;0.92;66.29;96198.81;5106307;28;20049;-78
2023/12/19 01:14:00;;;;;;;25.73;15.60;;;;;;;1.01;66.39;96207.56;5106020;28;20047;-79
2023/12/19 01:16:26;;;;;;;24.27;15.48;;;;;;;0.98;66.09;96205.56;5105972;28;20543;-79
2023/12/19 01:18:51;;;;;;;24.20;14.32;;;;;;;0.98;66.08;96199.38;5106344;28;20077;-78
2023/12/19 01:21:17;;;;;;;28.77;14.98;;;;;;;0.90;66.15;96189.44;5105565;28;20524;-79
2023/12/19 01:23:43;;;;;;;24.27;13.18;;;;;;;0.91;66.01;96191.03;5106329;28;20088;-79
2023/12/19 01:26:08;;;;;;;23.85;14.30;;;;;;;0.97;66.00;96198.56;5105667;28;20031;-78
2023/12/19 01:28:34;;;;;;;33.28;15.23;;;;;;;0.95;65.81;96198.13;5104586;28;20048;-78
2023/12/19 01:30:59;;;;;;;23.85;14.38;;;;;;;0.94;65.84;96204.66;5105704;28;20374;-77
2023/12/19 01:33:24;;;;;;;23.75;14.48;;;;;;;0.92;65.73;96206.94;5105828;28;20035;-78
2023/12/19 01:35:50;;;;;;;23.40;13.05;;;;;;;0.94;65.88;96201.19;5105014;28;20038;-78
2023/12/19 01:38:15;;;;;;;23.83;13.68;;;;;;;0.91;65.92;96194.50;5105658;28;20035;-78
2023/12/19 01:40:41;;;;;;;23.83;13.77;;;;;;;0.88;66.08;96192.50;5106444;28;20038;-78
2023/12/19 01:43:20;;;;;;;23.67;13.43;;;;;;;0.86;65.95;96188.56;5104086;28;20027;-78
2023/12/19 01:45:46;;;;;;;19.48;12.65;;;;;;;0.90;66.00;96197.56;5106458;28;20036;-78
2023/12/19 01:48:13;;;;;;;22.25;13.25;;;;;;;0.83;66.10;96191.97;5104250;28;20486;-78
2023/12/19 01:50:38;;;;;;;24.60;14.75;;;;;;;0.82;65.96;96187.69;5104777;28;20027;-78
2023/12/19 01:53:04;;;;;;;24.98;14.30;;;;;;;0.86;65.54;96183.13;5104885;28;20027;-77
2023/12/19 01:55:29;;;;;;;22.02;13.90;;;;;;;0.55;65.65;96145.91;5105271;28;20503;-78
2023/12/19 01:57:55;;;;;;;24.65;14.20;;;;;;;0.79;65.50;96181.03;5106339;28;20134;-79
2023/12/19 02:00:21;;;;;;;23.75;14.32;;;;;;;0.82;65.26;96182.28;5103736;28;20027;-79
2023/12/19 02:02:48;;;;;;;24.65;14.55;;;;;;;0.75;65.17;96177.44;5106019;28;20559;-79
2023/12/19 02:05:14;;;;;;;23.27;13.90;;;;;;;0.81;64.51;96180.69;5103604;28;20497;-78
2023/12/19 02:07:39;;;;;;;22.42;13.20;;;;;;;0.76;64.62;96176.31;5106099;28;20026;-78
2023/12/19 02:10:05;;;;;;;21.45;12.75;;;;;;;0.72;64.81;96181.59;5105529;28;20164;-78
2023/12/19 02:12:31;;;;;;;23.02;13.30;;;;;;;0.64;64.35;96174.44;5105698;28;20035;-78
2023/12/19 02:14:57;;;;;;;25.10;13.70;;;;;;;0.72;64.22;96175.41;5105849;28;20039;-78
2023/12/19 02:17:23;;;;;;;21.23;13.43;;;;;;;0.65;64.41;96167.09;5105402;28;20020;-78
2023/12/19 02:19:50;;;;;;;25.83;14.52;;;;;;;0.66;64.20;96171.38;5106079;28;20030;-78
2023/12/19 02:22:15;;;;;;;25.90;13.57;;;;;;;0.57;64.18;96173.41;5104957;28;20028;-78
2023/12/19 02:24:41;;;;;;;24.30;14.57;;;;;;;0.53;64.34;96179.53;5106010;28;20100;-77
2023/12/19 02:27:08;;;;;;;26.95;13.70;;;;;;;0.52;64.03;96169.84;5105248;28;20607;-79
2023/12/19 02:29:33;;;;;;;22.55;13.48;;;;;;;0.46;63.80;96176.63;5104212;28;20019;-78
2023/12/19 02:31:59;;;;;;;25.13;14.13;;;;;;;0.46;63.90;96165.78;5107435;28;20035;-79
2023/12/19 02:34:25;;;;;;;26.90;13.70;;;;;;;0.34;63.76;96149.56;5109227;28;20020;-78
2023/12/19 02:36:50;;;;;;;24.25;14.05;;;;;;;0.35;63.75;96163.91;5109624;28;20023;-78
2023/12/19 02:39:15;;;;;;;28.33;15.52;;;;;;;0.36;64.15;96166.25;5108735;28;20055;-78
2023/12/19 02:41:41;;;;;;;27.33;15.15;;;;;;;0.30;64.27;96164.13;5109224;28;20024;-78
2023/12/19 02:44:06;;;;;;;24.85;13.75;;;;;;;0.25;64.59;96157.03;5108644;28;20383;-79
2023/12/19 02:46:32;;;;;;;24.52;13.25;;;;;;;0.23;65.25;96162.78;5109100;28;20024;-78
2023/12/19 02:48:58;;;;;;;23.80;13.73;;;;;;;0.20;65.12;96158.03;5108975;28;20023;-78
2023/12/19 02:51:24;;;;;;;20.38;12.65;;;;;;;0.22;65.01;96158.47;5107383;28;20035;-78
2023/12/19 02:53:50;;;;;;;29.15;16.45;;;;;;;0.15;66.25;96160.97;5109099;28;20032;-77
2023/12/19 02:56:15;;;;;;;31.17;16.88;;;;;;;0.17;66.37;96157.94;5107213;28;20485;-79
2023/12/19 02:58:41;;;;;;;24.23;14.98;;;;;;;0.17;65.68;96158.75;5108887;28;20486;-78
2023/12/19 03:01:07;;;;;;;25.30;13.63;;;;;;;0.18;65.28;96162.22;5108374;28;20031;-77
2023/12/19 03:03:32;;;;;;;22.45;13.95;;;;;;;0.16;65.13;96161.75;5108492;28;20062;-77
2023/12/19 03:05:58;;;;;;;24.85;14.57;;;;;;;-0.03;65.41;96135.31;5108270;28;20474;-79
2023/12/19 03:08:23;;;;;;;25.63;14.23;;;;;;;0.10;65.50;96155.78;5108468;28;20039;-78
2023/12/19 03:10:48;;;;;;;27.10;15.30;;;;;;;0.13;65.22;96155.13;5108419;28;20050;-78
2023/12/19 03:13:14;;;;;;;28.60;15.85;;;;;;;0.12;65.42;96166.28;5108375;28;20115;-78
2023/12/19 03:15:39;;;;;;;25.00;15.00;;;;;;;0.14;65.16;96156.72;5109021;27;20061;-78
2023/12/19 03:18:05;;;;;;;21.05;13.73;;;;;;;0.07;64.90;96153.78;5108036;27;20055;-79
2023/12/19 03:20:30;;;;;;;24.35;13.82;;;;;;;0.08;64.70;96158.06;5108526;28;20061;-78
2023/12/19 03:22:55;;;;;;;22.77;13.32;;;;;;;0.08;64.74;96157.28;5108102;28;20041;-78
2023/12/19 03:25:21;;;;;;;25.55;14.70;;;;;;;-0.01;64.99;96166.28;5108551;28;20038;-79
2023/12/19 03:27:46;;;;;;;21.73;12.75;;;;;;;-0.06;65.18;96157.59;5108196;28;20501;-79
2023/12/19 03:30:12;;;;;;;31.90;18.70;;;;;;;-0.10;65.78;96151.31;5108329;28;20027;-77
2023/12/19 03:32:37;;;;;;;39.92;21.92;;;;;;;-0.06;66.58;96163.00;5108083;28;20546;-79
2023/12/19 03:35:03;;;;;;;35.45;20.80;;;;;;;-0.06;67.51;96168.41;5108006;27;20100;-78
2023/12/19 03:37:28;;;;;;;40.95;22.50;;;;;;;-0.07;67.85;96158.75;5108077;28;20027;-77
2023/12/19 03:39:53;;;;;;;43.90;23.27;;;;;;;-0.13;68.18;96157.38;5107900;28;20035;-79
2023/12/19 03:42:19;;;;;;;42.25;25.02;;;;;;;-0.08;68.45;96162.56;5107387;28;20509;-77
2023/12/19 03:44:44;;;;;;;43.75;24.05;;;;;;;-0.04;68.50;96166.19;5106239;28;20043;-78
2023/12/19 03:47:13;;;;;;;50.00;24.00;;;;;;;-0.03;68.47;96159.66;5108444;28;20470;-78
2023/12/19 03:49:39;;;;;;;47.95;25.98;;;;;;;-0.06;68.58;96163.00;5108062;28;20127;-78
2023/12/19 03:52:04;;;;;;;46.95;25.63;;;;;;;-0.07;68.70;96154.13;5107939;28;20065;-79
2023/12/19 03:54:30;;;;;;;43.97;23.23;;;;;;;-0.06;68.45;96153.00;5107935;28;20462;-78
2023/12/19 03:56:55;;;;;;;42.70;23.85;;;;;;;-0.07;68.31;96154.13;5107472;28;20042;-79
2023/12/19 03:59:21;;;;;;;43.28;24.98;;;;;;;-0.06;68.09;96153.00;5108031;28;20122;-79
2023/12/19 04:01:48;;;;;;;45.75;23.75;;;;;;;-0.07;68.10;96135.19;5107452;28;20405;-79
2023/12/19 04:04:13;;;;;;;43.25;23.63;;;;;;;-0.06;68.08;96150.31;5107869;28;20106;-78
2023/12/19 04:06:43;;;;;;;47.65;24.27;;;;;;;-0.07;67.91;96135.19;5107674;28;20099;-79
2023/12/19 04:09:09;;;;;;;55.90;25.27;;;;;;;-0.06;68.03;96131.38;5107609;28;20019;-78
2023/12/19 04:11:35;;;;;;;48.72;25.98;;;;;;;-0.07;68.12;96137.91;5106476;28;20047;-79
2023/12/19 04:14:00;;;;;;;48.63;25.20;;;;;;;-0.07;68.07;96139.81;5107320;28;20499;-79
2023/12/19 04:16:26;;;;;;;46.63;25.88;;;;;;;-0.06;68.13;96135.97;5107862;28;20030;-80
2023/12/19 04:18:51;;;;;;;41.38;23.85;;;;;;;-0.05;67.83;96129.47;5107182;28;20073;-77
2023/12/19 04:21:16;;;;;;;48.83;24.98;;;;;;;-0.09;67.71;96132.06;5107930;28;20114;-78
2023/12/19 04:23:42;;;;;;;42.05;23.75;;;;;;;-0.09;67.76;96136.66;5106808;27;20043;-78
2023/12/19 04:26:07;;;;;;;47.78;24.75;;;;;;;-0.12;67.69;96146.22;5107488;28;20559;-79
2023/12/19 04:28:33;;;;;;;51.38;24.88;;;;;;;-0.14;67.59;96145.00;5107209;28;20027;-79
2023/12/19 04:30:58;;;;;;;46.40;26.33;;;;;;;-0.17;67.85;96143.78;5107170;28;20439;-78
2023/12/19 04:33:23;;;;;;;51.75;24.65;;;;;;;-0.18;67.89;96146.81;5107066;28;20118;-78
2023/12/19 04:35:49;;;;;;;46.50;23.92;;;;;;;-0.20;67.92;96147.16;5107247;28;20043;-78
2023/12/19 04:38:14;;;;;;;53.42;28.00;;;;;;;-0.19;67.57;96147.94;5107072;28;20062;-79
2023/12/19 04:40:39;;;;;;;51.35;27.48;;;;;;;-0.20;67.61;96149.06;5106719;28;20023;-79
2023/12/19 04:43:05;;;;;;;59.58;27.88;;;;;;;-0.20;67.35;96149.84;5108075;28;20028;-79
2023/12/19 04:45:30;;;;;;;48.10;27.52;;;;;;;-0.19;67.48;96166.84;5107519;28;20024;-79
2023/12/19 04:47:56;;;;;;;49.88;28.00;;;;;;;-0.18;67.16;96163.81;5108901;28;20056;-78
2023/12/19 04:50:21;;;;;;;49.67;27.33;;;;;;;-0.21;67.39;96166.41;5107920;28;20028;-78
2023/12/19 04:52:46;;;;;;;45.80;25.83;;;;;;;-0.19;67.42;96166.84;5106605;28;20019;-79
2023/12/19 04:55:12;;;;;;;50.72;26.02;;;;;;;-0.20;67.47;96167.97;5106127;28;20028;-78
2023/12/19 04:57:37;;;;;;;48.22;28.20;;;;;;;-0.24;67.67;96158.97;5105918;28;20153;-78
2023/12/19 05:00:04;;;;;;;47.10;26.15;;;;;;;-0.27;67.60;96161.22;5106619;28;20039;-79
2023/12/19 05:02:30;;;;;;;41.53;22.90;;;;;;;-0.28;67.27;96170.47;5104413;28;20130;-79
2023/12/19 05:04:55;;;;;;;49.17;26.42;;;;;;;-0.27;67.36;96169.34;5106549;28;20028;-79
2023/12/19 05:07:21;;;;;;;39.08;23.25;;;;;;;-0.33;67.38;96167.19;5106203;28;20033;-80
2023/12/19 05:09:46;;;;;;;40.15;23.00;;;;;;;-0.31;67.49;96176.53;5104680;28;20036;-78
2023/12/19 05:12:12;;;;;;;37.55;19.95;;;;;;;-0.35;66.95;96183.72;5106676;28;20023;-79
2023/12/19 05:14:37;;;;;;;33.55;20.05;;;;;;;-0.32;66.40;96172.25;5105486;28;20039;-79
2023/12/19 05:17:03;;;;;;;37.67;21.08;;;;;;;-0.32;66.27;96174.16;5105373;28;20038;-79
2023/12/19 05:19:32;;;;;;;33.17;19.23;;;;;;;-0.36;66.16;96184.06;5105687;28;20019;-79
2023/12/19 05:21:57;;;;;;;38.83;20.00;;;;;;;-0.38;66.13;96181.72;5106213;28;20573;-78
2023/12/19 05:24:23;;;;;;;33.50;20.00;;;;;;;-0.43;66.02;96179.22;5105980;28;20094;-80
2023/12/19 05:26:48;;;;;;;36.72;22.63;;;;;;;-0.43;65.96;96179.22;5106558;28;20028;-78
2023/12/19 05:29:13;;;;;;;37.50;20.77;;;;;;;-0.39;65.86;96169.31;5106365;28;20543;-78
2023/12/19 05:31:39;;;;;;;41.80;22.13;;;;;;;-0.46;65.85;96169.09;5105633;28;20027;-79
2023/12/19 05:34:04;;;;;;;43.95;23.17;;;;;;;-0.45;65.65;96170.66;5106092;28;20459;-77
2023/12/19 05:36:33;;;;;;;34.53;20.77;;;;;;;-0.47;65.85;96177.50;5105193;28;20099;-79
2023/12/19 05:38:59;;;;;;;33.65;21.63;;;;;;;-0.52;66.19;96183.91;5106308;28;20060;-78
2023/12/19 05:41:25;;;;;;;34.28;20.45;;;;;;;-0.51;66.23;96174.72;5103998;28;20039;-78
2023/12/19 05:43:53;;;;;;;33.17;20.42;;;;;;;-0.49;66.31;96177.84;5106609;28;20055;-78
2023/12/19 05:46:19;;;;;;;34.50;20.45;;;;;;;-0.50;66.27;96181.69;5106071;28;20031;-78
2023/12/19 05:48:44;;;;;;;38.05;23.52;;;;;;;-0.49;65.95;96177.84;5105655;28;20558;-77
2023/12/19 05:51:10;;;;;;;50.80;28.67;;;;;;;-0.48;65.58;96179.44;5106285;28;20027;-78
2023/12/19 05:53:37;;;;;;;61.58;34.30;;;;;;;-0.51;65.83;96185.53;5103823;28;20028;-78
2023/12/19 05:56:03;;;;;;;66.82;38.88;;;;;;;-0.52;65.87;96183.13;5105953;28;20560;-79
2023/12/19 05:58:28;;;;;;;73.47;41.88;;;;;;;-0.51;65.61;96177.41;5105446;28;20106;-78
2023/12/19 06:00:55;;;;;;;79.97;43.92;;;;;;;-0.53;65.73;96174.25;5105874;28;20027;-78
2023/12/19 06:03:21;;;;;;;90.35;44.70;;;;;;;-0.53;65.67;96174.25;5105844;28;20102;-78
2023/12/19 06:05:46;;;;;;;89.03;46.20;;;;;;;-0.49;65.49;96177.06;5107144;28;20051;-79
2023/12/19 06:08:12;;;;;;;86.70;44.95;;;;;;;-0.54;65.60;96169.97;5109938;28;20110;-80
2023/12/19 06:10:37;;;;;;;78.82;44.15;;;;;;;-0.55;65.44;96168.41;5109250;28;20020;-78
2023/12/19 06:13:03;;;;;;;83.20;43.13;;;;;;;-0.54;65.14;96172.66;5109726;27;20059;-80
2023/12/19 06:15:28;;;;;;;78.15;43.35;;;;;;;-0.58;65.43;96161.75;5109017;28;20143;-79
2023/12/19 06:17:53;;;;;;;81.50;44.63;;;;;;;-0.58;65.68;96169.06;5109776;28;20499;-78
2023/12/19 06:20:20;;;;;;;72.75;41.38;;;;;;;-0.57;65.73;96165.25;5109177;28;20504;-79
2023/12/19 06:22:45;;;;;;;77.57;42.63;;;;;;;-0.56;65.69;96169.53;5107843;28;20592;-78
2023/12/19 06:25:11;;;;;;;79.43;41.03;;;;;;;-0.56;65.40;96159.50;5109387;27;20048;-79
2023/12/19 06:27:40;;;;;;;71.93;40.55;;;;;;;-0.54;65.31;96167.28;5109321;28;20110;-79
2023/12/19 06:30:08;;;;;;;78.60;39.65;;;;;;;-0.55;65.25;96169.19;5108323;28;20536;-80
2023/12/19 06:32:35;;;;;;;74.85;39.97;;;;;;;-0.52;65.18;96169.63;5108850;28;20047;-80
2023/12/19 06:35:02;;;;;;;71.30;40.83;;;;;;;-0.50;65.30;96165.47;5109381;28;20023;-79
2023/12/19 06:37:27;;;;;;;71.47;40.20;;;;;;;-0.50;65.38;96165.47;5108776;27;20059;-78
2023/12/19 06:39:53;;;;;;;74.38;40.92;;;;;;;-0.45;65.44;96167.19;5108060;28;20058;-79
2023/12/19 06:42:18;;;;;;;82.25;42.70;;;;;;;-0.41;65.40;96163.44;5107639;28;20088;-79
2023/12/19 06:44:44;;;;;;;84.70;43.50;;;;;;;-0.42;65.56;96172.69;5108941;28;20459;-79
2023/12/19 06:47:10;;;;;;;78.10;43.13;;;;;;;-0.41;65.56;96166.16;5109171;28;20076;-79
2023/12/19 06:49:35;;;;;;;75.18;40.03;;;;;;;-0.35;65.21;96167.50;5107157;28;20020;-80
2023/12/19 06:52:00;;;;;;;84.80;43.92;;;;;;;-0.29;65.01;96176.19;5109052;28;20434;-78
2023/12/19 06:54:26;;;;;;;86.28;45.60;;;;;;;-0.29;65.27;96162.66;5108533;28;20036;-80
2023/12/19 06:56:52;;;;;;;83.85;46.03;;;;;;;-0.28;65.26;96170.47;5108729;28;20059;-80
2023/12/19 06:59:17;;;;;;;89.45;45.35;;;;;;;-0.20;65.16;96176.88;5107269;28;20019;-80
2023/12/19 07:01:43;;;;;;;85.85;45.30;;;;;;;-0.12;64.85;96175.19;5108543;28;20046;-77
2023/12/19 07:04:08;;;;;;;79.53;44.47;;;;;;;-0.05;64.70;96178.91;5108693;28;20525;-77
2023/12/19 07:06:33;;;;;;;83.88;46.35;;;;;;;-0.03;64.82;96176.66;5108564;28;20020;-77
2023/12/19 07:09:00;;;;;;;79.85;44.28;;;;;;;0.01;64.92;96171.38;5108442;28;20016;-77
2023/12/19 07:11:28;;;;;;;77.93;43.05;;;;;;;0.09;64.79;96178.56;5106922;28;20027;-77
2023/12/19 07:13:53;;;;;;;64.95;40.90;;;;;;;0.10;65.03;96182.84;5108331;28;20051;-79
2023/12/19 07:16:19;;;;;;;79.95;43.97;;;;;;;0.18;64.63;96186.56;5106659;28;20024;-78
2023/12/19 07:18:45;;;;;;;96.95;49.83;;;;;;;0.25;64.40;96192.97;5106138;28;20038;-78
2023/12/19 07:21:21;;;;;;;89.20;47.95;;;;;;;0.29;64.17;96189.59;5106627;28;20039;-79
2023/12/19 07:23:47;;;;;;;96.72;48.47;;;;;;;0.28;64.24;96179.88;5107988;28;20024;-78
2023/12/19 07:26:26;;;;;;;99.10;48.97;;;;;;;0.38;64.09;96172.09;5108453;27;20566;-77
2023/12/19 07:28:52;;;;;;;94.60;49.95;;;;;;;0.39;63.94;96175.59;5105975;28;20024;-77
2023/12/19 07:31:29;;;;;;;89.38;44.95;;;;;;;0.41;64.17;96167.94;5108247;28;20034;-78
2023/12/19 07:34:06;;;;;;;78.85;42.80;;;;;;;0.57;64.14;96168.78;5106589;28;20035;-77
2023/12/19 07:36:32;;;;;;;69.95;36.72;;;;;;;0.76;63.88;96168.97;5106669;28;20465;-77
2023/12/19 07:38:58;;;;;;;71.10;36.72;;;;;;;0.99;63.65;96168.44;5106706;28;20078;-77
2023/12/19 07:41:26;;;;;;;73.72;39.95;;;;;;;1.30;62.73;96154.16;5107585;28;20545;-78
2023/12/19 07:43:52;;;;;;;71.40;39.00;;;;;;;1.63;62.16;96148.44;5107781;28;20466;-78
2023/12/19 07:46:19;;;;;;;69.65;38.50;;;;;;;1.98;61.41;96153.16;5107463;28;20031;-79
2023/12/19 07:48:44;;;;;;;71.13;40.28;;;;;;;2.33;60.99;96151.25;5107672;28;20020;-79
2023/12/19 07:51:21;;;;;;;72.57;39.97;;;;;;;2.77;59.73;96152.97;5107696;28;20451;-78
2023/12/19 07:53:46;;;;;;;88.25;44.53;;;;;;;3.78;57.74;96143.56;5107916;28;20031;-78
2023/12/19 07:56:12;;;;;;;84.40;44.40;;;;;;;5.43;53.35;96141.88;5107785;28;20030;-78
2023/12/19 07:58:37;;;;;;;77.07;44.00;;;;;;;6.89;49.27;96140.28;5105836;28;20030;-78
2023/12/19 08:01:03;;;;;;;77.60;47.25;;;;;;;7.97;46.34;96133.09;5107539;28;20294;-77
2023/12/19 08:03:29;;;;;;;89.47;50.05;;;;;;;8.89;43.88;96134.19;5107452;28;20570;-77
2023/12/19 08:05:56;;;;;;;90.18;52.55;;;;;;;9.73;41.99;96137.69;5107760;28;20111;-78
2023/12/19 08:08:23;;;;;;;92.32;53.20;;;;;;;10.37;39.81;96134.50;5105851;28;20422;-84
2023/12/19 08:10:50;;;;;;;95.55;52.72;;;;;;;10.92;38.99;96143.00;5105827;28;20551;-79
2023/12/19 08:13:16;;;;;;;91.53;56.70;;;;;;;11.35;37.91;96144.06;5106013;28;20036;-78
2023/12/19 08:15:41;;;;;;;95.13;55.20;;;;;;;12.06;36.33;96134.06;5107525;28;20058;-79
2023/12/19 08:18:09;;;;;;;85.85;53.70;;;;;;;12.57;35.47;96145.81;5107802;28;20059;-79
2023/12/19 08:20:35;;;;;;;84.05;51.53;;;;;;;13.14;34.28;96141.25;5106587;28;20024;-79
2023/12/19 08:23:01;;;;;;;76.75;48.58;;;;;;;13.62;33.41;96132.38;5107254;28;20069;-80
2023/12/19 08:25:27;;;;;;;67.18;43.28;;;;;;;14.14;32.44;96134.34;5105021;28;20377;-79
2023/12/19 08:27:53;;;;;;;48.38;33.70;;;;;;;14.58;31.70;96126.59;5106796;28;20019;-77
2023/12/19 08:30:19;;;;;;;44.72;27.67;;;;;;;15.06;30.58;96128.47;5105507;28;20079;-78
2023/12/19 08:32:44;;;;;;;38.78;28.58;;;;;;;15.46;29.93;96124.59;5107006;28;20489;-77
2023/12/19 08:35:09;;;;;;;39.70;27.25;;;;;;;16.00;28.84;96110.75;5107168;28;20478;-78
2023/12/19 08:37:36;;;;;;;45.15;28.60;;;;;;;16.46;28.34;96127.91;5106510;28;20019;-78
2023/12/19 08:40:03;;;;;;;39.55;28.73;;;;;;;17.04;27.52;96118.44;5107179;28;20036;-79
2023/12/19 08:42:29;;;;;;;43.28;30.58;;;;;;;17.48;27.17;96114.41;5106358;28;20024;-79
2023/12/19 08:44:55;;;;;;;42.00;32.20;;;;;;;17.91;26.59;96112.81;5105516;28;20024;-78
2023/12/19 08:47:27;;;;;;;43.50;32.38;;;;;;;18.45;25.68;96099.53;5106534;28;20383;-78
2023/12/19 08:49:53;;;;;;;44.78;32.85;;;;;;;19.01;24.96;96095.59;5106843;28;20531;-79
2023/12/19 08:52:22;;;;;;;47.45;34.10;;;;;;;19.49;24.36;96098.66;5106560;28;20114;-78
2023/12/19 08:54:48;;;;;;;46.38;32.95;;;;;;;19.88;24.29;96082.94;5106367;28;20557;-79
2023/12/19 08:57:14;;;;;;;44.60;35.28;;;;;;;20.37;23.72;96082.56;5105128;28;20111;-78
2023/12/19 08:59:40;;;;;;;48.38;34.92;;;;;;;20.61;23.23;96077.00;5091141;28;20024;-79
2023/12/19 09:02:06;;;;;;;47.95;35.35;;;;;;;20.94;22.86;96074.13;5105204;28;20110;-79
2023/12/19 09:04:31;;;;;;;48.00;36.53;;;;;;;21.36;22.38;96073.16;5106011;28;20026;-79
2023/12/19 09:06:57;;;;;;;50.10;37.28;;;;;;;21.73;22.04;96072.75;5106472;28;20032;-79
2023/12/19 09:09:22;;;;;;;50.75;38.17;;;;;;;21.99;21.76;96070.13;5106130;28;20027;-79
2023/12/19 09:11:48;;;;;;;51.03;37.58;;;;;;;22.44;21.31;96065.22;5106496;28;20554;-79
2023/12/19 09:14:14;;;;;;;54.85;40.38;;;;;;;22.56;21.33;96063.34;5106223;28;20521;-79
2023/12/19 09:16:39;;;;;;;54.38;40.10;;;;;;;22.89;20.81;96063.03;5105525;28;20421;-79
2023/12/19 09:19:05;;;;;;;55.42;40.75;;;;;;;22.97;20.62;96052.94;5106601;28;20111;-79
2023/12/19 09:21:31;;;;;;;60.40;42.78;;;;;;;23.14;20.59;96044.72;5105940;28;20035;-79
2023/12/19 09:23:56;;;;;;;62.60;46.20;;;;;;;23.35;20.41;96043.41;5106258;28;20501;-79
2023/12/19 09:26:22;;;;;;;70.97;45.90;;;;;;;23.81;19.99;96034.16;5106191;28;20027;-79
2023/12/19 09:28:47;;;;;;;63.13;45.05;;;;;;;24.08;19.80;96033.56;5106084;28;20019;-78
2023/12/19 09:31:12;;;;;;;58.95;43.22;;;;;;;24.45;19.20;96032.81;5106507;28;20020;-79
2023/12/19 09:33:41;;;;;;;57.45;43.65;;;;;;;24.57;19.19;96039.25;5105739;28;20032;-79
2023/12/19 09:36:09;;;;;;;58.42;43.30;;;;;;;24.79;19.20;96036.53;5106353;28;20593;-79
2023/12/19 09:38:35;;;;;;;59.42;43.33;;;;;;;24.73;19.22;96020.94;5105566;28;20042;-80
2023/12/19 09:41:04;;;;;;;65.75;44.10;;;;;;;25.04;19.22;96026.38;5107187;28;20020;-80
2023/12/19 09:43:33;;;;;;;64.28;44.17;;;;;;;25.23;18.82;96032.34;5110129;28;20566;-79
2023/12/19 09:46:02;;;;;;;56.03;43.60;;;;;;;25.23;18.87;96021.09;5110467;28;20530;-78
2023/12/19 09:48:32;;;;;;;60.38;44.17;;;;;;;25.15;18.76;96029.25;5110295;28;20066;-79
2023/12/19 09:51:01;;;;;;;64.05;43.22;;;;;;;25.36;18.69;96017.81;5109730;28;20031;-80
2023/12/19 09:53:28;;;;;;;57.03;41.15;;;;;;;25.53;18.29;96015.00;5110627;28;20027;-78
2023/12/19 09:55:53;;;;;;;51.45;39.72;;;;;;;25.56;18.48;96016.78;5108159;28;20031;-79
2023/12/19 09:58:19;;;;;;;47.90;39.53;;;;;;;25.65;18.42;96008.88;5110203;28;20023;-79
2023/12/19 10:00:45;;;;;;;51.28;39.05;;;;;;;25.53;18.27;96004.53;5108028;28;20076;-79
2023/12/19 10:03:11;;;;;;;48.47;39.67;;;;;;;25.62;18.16;96003.47;5110106;28;20386;-79
2023/12/19 10:05:36;;;;;;;50.45;38.28;;;;;;;25.57;18.46;96001.44;5109605;28;20030;-78
2023/12/19 10:08:03;;;;;;;53.78;41.22;;;;;;;25.74;18.24;95996.59;5109742;28;20019;-79
2023/12/19 10:10:57;;;;;;;56.58;44.45;;;;;;;25.72;18.27;95996.31;5108468;28;20024;-79
2023/12/19 10:13:25;;;;;;;64.22;45.28;;;;;;;25.55;18.42;95989.94;5100013;28;20027;-79
2023/12/19 10:16:17;;;;;;;70.35;48.13;;;;;;;25.48;18.49;95990.44;5109956;28;20047;-79
2023/12/19 10:18:44;;;;;;;61.60;46.17;;;;;;;25.39;18.63;95983.00;5109591;28;20040;-80
2023/12/19 10:21:19;;;;;;;63.13;49.40;;;;;;;25.32;18.47;95975.84;5109639;28;20023;-78
2023/12/19 10:23:45;;;;;;;68.45;50.85;;;;;;;25.35;18.28;95974.81;5109508;28;20403;-79
2023/12/19 10:26:10;;;;;;;66.63;48.90;;;;;;;25.27;18.44;95961.75;5107829;28;20442;-79
2023/12/19 10:28:37;;;;;;;63.70;49.75;;;;;;;25.05;18.57;95954.81;5109802;28;20031;-79
2023/12/19 10:31:06;;;;;;;67.80;50.15;;;;;;;25.05;18.80;95956.84;5108974;28;20338;-79
2023/12/19 10:33:45;;;;;;;66.38;50.53;;;;;;;24.96;18.89;95945.84;5110039;28;20394;-79
2023/12/19 10:36:30;;;;;;;70.15;51.80;;;;;;;24.90;18.92;95945.81;5109242;28;20047;-79
2023/12/19 10:38:58;;;;;;;72.97;53.58;;;;;;;25.05;19.05;95932.31;5109071;28;20485;-79
2023/12/19 10:41:26;;;;;;;70.85;53.03;;;;;;;25.41;18.63;95929.81;5109473;28;20067;-79
2023/12/19 10:43:57;;;;;;;69.75;51.95;;;;;;;24.98;18.86;95929.97;5108822;28;20525;-79
2023/12/19 10:46:28;;;;;;;69.68;53.60;;;;;;;25.24;19.03;95924.16;5109527;28;20181;-79
2023/12/19 10:48:56;;;;;;;66.30;52.28;;;;;;;25.83;18.25;95902.66;5108930;28;20494;-78
2023/12/19 10:51:42;;;;;;;69.93;52.97;;;;;;;26.58;17.86;95906.25;5107043;28;20105;-79
2023/12/19 10:54:09;;;;;;;71.20;54.60;;;;;;;27.63;16.81;95905.28;5107076;28;20411;-80
2023/12/19 10:57:12;;;;;;;71.35;55.80;;;;;;;28.34;16.23;95898.69;5108574;28;20480;-79
2023/12/19 10:59:47;;;;;;;74.63;59.17;;;;;;;28.99;15.88;95889.06;5108965;28;20027;-78
2023/12/19 11:02:40;;;;;;;80.10;61.45;;;;;;;29.27;15.35;95892.25;5108925;28;20034;-80
2023/12/19 11:05:11;;;;;;;;;;;;;;;29.42;15.36;95891.75;5109074;28;20023;-79
2023/12/19 11:07:40;;;;;;;80.90;61.65;;;;;;;29.60;15.28;95885.28;5109026;28;20491;-79
2023/12/19 11:10:06;;;;;;;75.72;62.35;;;;;;;29.64;15.00;95884.94;5106857;28;20036;-79
2023/12/19 11:12:35;;;;;;;75.75;60.47;;;;;;;29.57;15.30;95866.53;5107753;28;20111;-78
2023/12/19 11:15:02;;;;;;;77.43;59.22;;;;;;;29.74;14.74;95860.56;5108040;28;20040;-78
2023/12/19 11:17:45;;;;;;;73.10;57.47;;;;;;;30.00;14.82;95861.91;5089832;28;20131;-78